Allison, North Carolina
Current Conditions -  °F | °C
As of 5:53 AM on Thursday 18 Dec 2014 (Local Time) from KDAN Reporting Station
Clear Clear  
Wind Chill: -1°   Ceiling: Unl
Heat Index:   Visibility: 10mi
Dew Point: -4°   Wind: 5mph
Humidity: 67%   Direction: 330°NNW
Pressure: 30.16"   Gusts: NA
Location:  36.4355°N, 79.5464°W
Report Text: KDAN 181053Z AUTO 33004KT 10SM CLR 01/M04 A3016 RMK AO2 SLP209 T00111044
Loading
Personal Weather Stations






























Interactive Weather Map New forecast layout! Learn more

10-Day Weather Forecast

Advertisements
Track Severe Weather on mobile